• Join FlightAware (Why Join?)
  • Login
  • US Flag 
05:07AM EDT


 

Airport Tracker/Info


-or-


 

Live Flight TrackerFlight Track Log ✈ CFS820 ✈ 01-Nov-2013 ✈ KGTF - KMSO

Flight Track Log - Related Links

Times and Time Zones

All times are in EDT time to prevent confusion due to time zone crossing. See the CFS820 flight status page for this flight to view local times or setup timezone preferences in your user account.

Time Position Orientation Groundspeed Altitude Reporting Facility
EDT Latitude Longitude Course Direction KTS MPH feet Rate Location/Type
09:03AM 47.4733 -111.3761 227° Southwest 114 131 4,500  Level Salt Lake Center
09:04AM 47.4486 -111.4147 227° Southwest 147 169 5,400 1,140 Climbing Salt Lake Center
09:05AM 47.4383 -111.4775 256° West 153 176 6,900 1,440 Climbing Salt Lake Center
09:06AM 47.4261 -111.5408 254° West 158 182 8,400 1,440 Climbing Salt Lake Center
09:07AM 47.4125 -111.6086 253° West 164 189 9,900 1,380 Climbing Salt Lake Center
09:08AM 47.3992 -111.6739 253° West 167 192 11,200 1,320 Climbing Salt Lake Center
09:09AM 47.3858 -111.7419 254° West 169 194 12,700 1,380 Climbing Salt Lake Center
09:10AM 47.3722 -111.8103 254° West 171 197 14,000 1,140 Climbing Salt Lake Center
09:11AM 47.3578 -111.8850 254° West 179 206 15,100 900 Climbing Salt Lake Center
09:12AM 47.3431 -111.9614 254° West 186 214 15,900 360 Climbing Salt Lake Center
09:13AM 47.3283 -112.0428 255° West 195 224 15,900  Level Salt Lake Center
09:14AM 47.3119 -112.1319 255° West 210 242 16,000  Climbing Salt Lake Center
09:15AM 47.2931 -112.2222 253° West 221 254 15,900 -60 Descending Salt Lake Center
09:16AM 47.2733 -112.3150 253° West 233 268 15,900  Level Salt Lake Center
09:17AM 47.2522 -112.4222 254° West 230 265 15,900  Level Salt Lake Center
09:19AM 47.2196 -112.5437 248° West  Level FlightAware Approximate
09:19AM 47.2153 -112.6067 248° West 235 270 16,000  Level Salt Lake Center
09:20AM 47.1972 -112.6992 254° West 236 272 16,000  Level Salt Lake Center
09:21AM 47.1800 -112.7903 254° West 234 269 16,100  Climbing Salt Lake Center
09:22AM 47.1617 -112.8792 253° West 232 267 16,000 -120 Descending Salt Lake Center
09:23AM 47.1442 -112.9683 254° West 228 262 15,900 -300 Descending Salt Lake Center
09:24AM 47.1236 -113.0631 252° West 235 270 15,400 -480 Descending Salt Lake Center
09:25AM 47.1036 -113.1572 253° West 241 277 15,000 -240 Descending Salt Lake Center
09:26AM 47.0839 -113.2494 253° West 237 273 15,000  Level Salt Lake Center
09:27AM 47.0664 -113.3367 254° West 226 260 15,000 -120 Level Salt Lake Center
09:28AM 47.0481 -113.4233 253° West 222 255 14,800 -780 Descending Salt Lake Center
09:29AM 47.0117 -113.4922 232° Southwest 229 264 13,500 -1,320 Descending Salt Lake Center
09:30AM 46.9608 -113.5486 217° Southwest 230 265 12,200 -1,500 Descending Salt Lake Center
09:31AM 46.9161 -113.6133 225° Southwest 198 228 10,500 -1,380 Descending Salt Lake Center
09:32AM 46.8975 -113.6919 251° West 190 219 9,400 -1,080 Descending Salt Lake Center
09:33AM 46.8886 -113.7703 261° West 194 223 8,400 -1,020 Descending Salt Lake Center
09:34AM 46.8833 -113.8386 264° West 175 201 7,400 -1,200 Descending Salt Lake Center
09:35AM 46.8772 -113.9067 263° West 171 197 6,000 -960 Descending Salt Lake Center
09:36AM 46.8628 -113.9661 250° West 160 184 5,500 -780 Descending Salt Lake Center
09:37AM 46.8692 -114.0114 282° West 119 137 4,500 -840 Descending Salt Lake Center
09:38AM 46.8925 -114.0517 310° West 119 137 3,800 -660 Descending Salt Lake Center
09:39AM 46.9108 -114.0833 310° West 120 138 3,200 -600 Descending Salt Lake Center